sensor_id;sensor_type;location;lat;lon;timestamp;P1;durP1;ratioP1;P2;durP2;ratioP2
44137;SDS011;29800;55.942;37.314;2023-07-13T00:00:54;3.05;;;1.80;;
44137;SDS011;29800;55.942;37.314;2023-07-13T00:04:06;2.95;;;1.90;;
44137;SDS011;29800;55.942;37.314;2023-07-13T00:09:29;4.38;;;2.03;;
44137;SDS011;29800;55.942;37.314;2023-07-13T00:12:41;4.40;;;1.90;;
44137;SDS011;29800;55.942;37.314;2023-07-13T00:15:04;2.95;;;1.80;;
44137;SDS011;29800;55.942;37.314;2023-07-13T00:21:11;3.72;;;1.95;;
44137;SDS011;29800;55.942;37.314;2023-07-13T00:23:49;4.07;;;1.85;;
44137;SDS011;29800;55.942;37.314;2023-07-13T00:29:46;3.80;;;2.10;;
44137;SDS011;29800;55.942;37.314;2023-07-13T00:33:20;12.38;;;2.45;;
44137;SDS011;29800;55.942;37.314;2023-07-13T00:35:48;4.90;;;2.28;;
44137;SDS011;29800;55.942;37.314;2023-07-13T00:38:49;6.00;;;2.22;;
44137;SDS011;29800;55.942;37.314;2023-07-13T00:42:11;3.20;;;2.00;;
44137;SDS011;29800;55.942;37.314;2023-07-13T00:47:55;5.25;;;2.20;;
44137;SDS011;29800;55.942;37.314;2023-07-13T00:50:55;6.18;;;2.38;;
44137;SDS011;29800;55.942;37.314;2023-07-13T00:54:09;6.53;;;2.60;;
44137;SDS011;29800;55.942;37.314;2023-07-13T00:57:29;4.88;;;2.45;;
44137;SDS011;29800;55.942;37.314;2023-07-13T01:00:54;6.53;;;2.75;;
44137;SDS011;29800;55.942;37.314;2023-07-13T01:03:51;4.78;;;2.30;;
44137;SDS011;29800;55.942;37.314;2023-07-13T01:06:26;3.67;;;2.38;;
44137;SDS011;29800;55.942;37.314;2023-07-13T01:09:20;5.07;;;2.35;;
44137;SDS011;29800;55.942;37.314;2023-07-13T01:18:18;5.80;;;2.00;;
44137;SDS011;29800;55.942;37.314;2023-07-13T01:23:59;6.68;;;2.38;;
44137;SDS011;29800;55.942;37.314;2023-07-13T01:26:26;4.10;;;2.15;;
44137;SDS011;29800;55.942;37.314;2023-07-13T01:29:30;6.18;;;2.20;;
44137;SDS011;29800;55.942;37.314;2023-07-13T01:32:44;3.60;;;2.38;;
44137;SDS011;29800;55.942;37.314;2023-07-13T01:38:32;4.95;;;2.25;;
44137;SDS011;29800;55.942;37.314;2023-07-13T01:41:00;4.57;;;2.58;;
44137;SDS011;29800;55.942;37.314;2023-07-13T01:46:49;5.30;;;2.55;;
44137;SDS011;29800;55.942;37.314;2023-07-13T01:49:52;4.88;;;2.40;;
44137;SDS011;29800;55.942;37.314;2023-07-13T01:52:30;3.75;;;2.22;;
44137;SDS011;29800;55.942;37.314;2023-07-13T01:55:15;8.60;;;2.17;;
44137;SDS011;29800;55.942;37.314;2023-07-13T01:58:14;6.82;;;2.33;;
44137;SDS011;29800;55.942;37.314;2023-07-13T02:01:08;6.15;;;2.40;;
44137;SDS011;29800;55.942;37.314;2023-07-13T02:04:04;5.97;;;2.30;;
44137;SDS011;29800;55.942;37.314;2023-07-13T02:07:22;6.57;;;2.55;;
44137;SDS011;29800;55.942;37.314;2023-07-13T02:10:17;4.00;;;2.45;;
44137;SDS011;29800;55.942;37.314;2023-07-13T02:12:54;4.45;;;2.20;;
44137;SDS011;29800;55.942;37.314;2023-07-13T02:15:39;7.97;;;2.45;;
44137;SDS011;29800;55.942;37.314;2023-07-13T02:18:24;7.30;;;2.72;;
44137;SDS011;29800;55.942;37.314;2023-07-13T02:21:30;4.72;;;2.45;;
44137;SDS011;29800;55.942;37.314;2023-07-13T02:24:18;4.32;;;2.25;;
44137;SDS011;29800;55.942;37.314;2023-07-13T02:27:39;7.85;;;2.42;;
44137;SDS011;29800;55.942;37.314;2023-07-13T02:30:49;5.18;;;2.00;;
44137;SDS011;29800;55.942;37.314;2023-07-13T02:33:53;6.25;;;2.33;;
44137;SDS011;29800;55.942;37.314;2023-07-13T02:40:01;2.90;;;2.20;;
44137;SDS011;29800;55.942;37.314;2023-07-13T02:43:29;6.18;;;2.10;;
44137;SDS011;29800;55.942;37.314;2023-07-13T02:46:24;5.28;;;2.22;;
44137;SDS011;29800;55.942;37.314;2023-07-13T02:52:49;4.03;;;2.20;;
44137;SDS011;29800;55.942;37.314;2023-07-13T02:55:42;4.65;;;2.40;;
44137;SDS011;29800;55.942;37.314;2023-07-13T02:58:27;4.47;;;2.20;;
44137;SDS011;29800;55.942;37.314;2023-07-13T03:01:30;5.78;;;2.42;;
44137;SDS011;29800;55.942;37.314;2023-07-13T03:08:04;3.67;;;2.25;;
44137;SDS011;29800;55.942;37.314;2023-07-13T03:11:00;3.38;;;2.17;;
44137;SDS011;29800;55.942;37.314;2023-07-13T03:17:17;5.28;;;2.45;;
44137;SDS011;29800;55.942;37.314;2023-07-13T03:20:11;9.82;;;2.60;;
44137;SDS011;29800;55.942;37.314;2023-07-13T03:23:25;3.78;;;2.30;;
44137;SDS011;29800;55.942;37.314;2023-07-13T03:26:29;4.60;;;2.10;;
44137;SDS011;29800;55.942;37.314;2023-07-13T03:29:14;6.07;;;2.42;;
44137;SDS011;29800;55.942;37.314;2023-07-13T03:32:00;3.85;;;2.30;;
44137;SDS011;29800;55.942;37.314;2023-07-13T03:35:03;3.08;;;2.20;;
44137;SDS011;29800;55.942;37.314;2023-07-13T03:41:03;5.32;;;2.30;;
44137;SDS011;29800;55.942;37.314;2023-07-13T03:44:01;3.08;;;2.13;;
44137;SDS011;29800;55.942;37.314;2023-07-13T03:46:37;5.05;;;2.42;;
44137;SDS011;29800;55.942;37.314;2023-07-13T03:54:52;5.07;;;2.35;;
44137;SDS011;29800;55.942;37.314;2023-07-13T03:57:30;4.55;;;2.15;;
44137;SDS011;29800;55.942;37.314;2023-07-13T04:01:11;3.08;;;2.10;;
44137;SDS011;29800;55.942;37.314;2023-07-13T04:03:49;4.18;;;2.20;;
44137;SDS011;29800;55.942;37.314;2023-07-13T04:09:47;3.88;;;1.90;;
44137;SDS011;29800;55.942;37.314;2023-07-13T04:13:02;4.03;;;2.22;;
44137;SDS011;29800;55.942;37.314;2023-07-13T04:15:40;3.22;;;1.98;;
44137;SDS011;29800;55.942;37.314;2023-07-13T04:18:06;4.65;;;2.08;;
44137;SDS011;29800;55.942;37.314;2023-07-13T04:21:22;4.25;;;2.08;;
44137;SDS011;29800;55.942;37.314;2023-07-13T04:30:32;4.15;;;2.03;;
44137;SDS011;29800;55.942;37.314;2023-07-13T04:33:29;5.22;;;2.40;;
44137;SDS011;29800;55.942;37.314;2023-07-13T04:36:41;3.90;;;2.15;;
44137;SDS011;29800;55.942;37.314;2023-07-13T04:39:44;4.13;;;2.15;;
44137;SDS011;29800;55.942;37.314;2023-07-13T04:43:00;3.75;;;1.90;;
44137;SDS011;29800;55.942;37.314;2023-07-13T04:45:54;5.20;;;2.30;;
44137;SDS011;29800;55.942;37.314;2023-07-13T04:52:01;5.18;;;2.22;;
44137;SDS011;29800;55.942;37.314;2023-07-13T04:54:55;4.28;;;2.20;;
44137;SDS011;29800;55.942;37.314;2023-07-13T04:58:18;3.47;;;2.30;;
44137;SDS011;29800;55.942;37.314;2023-07-13T05:01:24;4.05;;;2.30;;
44137;SDS011;29800;55.942;37.314;2023-07-13T05:11:14;5.03;;;2.30;;
44137;SDS011;29800;55.942;37.314;2023-07-13T05:13:52;5.43;;;2.45;;
44137;SDS011;29800;55.942;37.314;2023-07-13T05:16:55;6.50;;;2.33;;
44137;SDS011;29800;55.942;37.314;2023-07-13T05:20:08;5.05;;;2.60;;
44137;SDS011;29800;55.942;37.314;2023-07-13T05:22:56;3.20;;;2.15;;
44137;SDS011;29800;55.942;37.314;2023-07-13T05:32:37;4.50;;;1.80;;
44137;SDS011;29800;55.942;37.314;2023-07-13T05:35:33;3.45;;;1.98;;
44137;SDS011;29800;55.942;37.314;2023-07-13T05:38:21;3.47;;;1.70;;
44137;SDS011;29800;55.942;37.314;2023-07-13T05:44:09;4.15;;;2.00;;
44137;SDS011;29800;55.942;37.314;2023-07-13T05:47:22;4.50;;;1.80;;
44137;SDS011;29800;55.942;37.314;2023-07-13T05:50:26;4.63;;;1.70;;
44137;SDS011;29800;55.942;37.314;2023-07-13T05:53:11;3.58;;;2.03;;
44137;SDS011;29800;55.942;37.314;2023-07-13T05:56:27;3.88;;;1.90;;
44137;SDS011;29800;55.942;37.314;2023-07-13T05:59:21;5.93;;;1.85;;
44137;SDS011;29800;55.942;37.314;2023-07-13T06:02:23;3.55;;;1.98;;
44137;SDS011;29800;55.942;37.314;2023-07-13T06:05:08;3.85;;;1.80;;
44137;SDS011;29800;55.942;37.314;2023-07-13T06:11:22;2.75;;;1.90;;
44137;SDS011;29800;55.942;37.314;2023-07-13T06:14:26;5.30;;;1.85;;
44137;SDS011;29800;55.942;37.314;2023-07-13T06:19:56;2.97;;;1.80;;
44137;SDS011;29800;55.942;37.314;2023-07-13T06:29:19;18.15;;;4.68;;
44137;SDS011;29800;55.942;37.314;2023-07-13T06:32:44;3.42;;;1.75;;
44137;SDS011;29800;55.942;37.314;2023-07-13T06:39:28;3.55;;;1.60;;
44137;SDS011;29800;55.942;37.314;2023-07-13T06:42:04;3.15;;;1.92;;
44137;SDS011;29800;55.942;37.314;2023-07-13T06:45:43;3.15;;;1.80;;
44137;SDS011;29800;55.942;37.314;2023-07-13T06:48:17;5.70;;;2.10;;
44137;SDS011;29800;55.942;37.314;2023-07-13T06:51:12;7.28;;;2.10;;
44137;SDS011;29800;55.942;37.314;2023-07-13T06:57:47;3.25;;;2.00;;
44137;SDS011;29800;55.942;37.314;2023-07-13T07:00:50;5.20;;;2.15;;
44137;SDS011;29800;55.942;37.314;2023-07-13T07:03:36;7.70;;;1.90;;
44137;SDS011;29800;55.942;37.314;2023-07-13T07:10:04;4.25;;;1.95;;
44137;SDS011;29800;55.942;37.314;2023-07-13T07:13:10;3.90;;;1.70;;
44137;SDS011;29800;55.942;37.314;2023-07-13T07:15:55;4.63;;;1.93;;
44137;SDS011;29800;55.942;37.314;2023-07-13T07:22:15;5.07;;;2.08;;
44137;SDS011;29800;55.942;37.314;2023-07-13T07:25:18;7.97;;;2.10;;
44137;SDS011;29800;55.942;37.314;2023-07-13T07:28:14;4.03;;;1.98;;
44137;SDS011;29800;55.942;37.314;2023-07-13T07:31:06;5.22;;;2.13;;
44137;SDS011;29800;55.942;37.314;2023-07-13T07:34:10;2.93;;;2.17;;
44137;SDS011;29800;55.942;37.314;2023-07-13T07:47:02;5.53;;;2.42;;
44137;SDS011;29800;55.942;37.314;2023-07-13T07:49:47;6.78;;;2.42;;
44137;SDS011;29800;55.942;37.314;2023-07-13T07:52:22;3.75;;;2.10;;
44137;SDS011;29800;55.942;37.314;2023-07-13T07:55:28;4.85;;;2.08;;
44137;SDS011;29800;55.942;37.314;2023-07-13T07:58:22;4.68;;;2.20;;
44137;SDS011;29800;55.942;37.314;2023-07-13T08:07:55;9.32;;;2.30;;
44137;SDS011;29800;55.942;37.314;2023-07-13T08:10:21;5.05;;;2.60;;
44137;SDS011;29800;55.942;37.314;2023-07-13T08:13:06;7.63;;;2.50;;
44137;SDS011;29800;55.942;37.314;2023-07-13T08:19:22;7.03;;;2.47;;
44137;SDS011;29800;55.942;37.314;2023-07-13T08:28:10;3.45;;;2.20;;
44137;SDS011;29800;55.942;37.314;2023-07-13T08:31:06;7.05;;;2.15;;
44137;SDS011;29800;55.942;37.314;2023-07-13T08:33:51;4.38;;;2.20;;
44137;SDS011;29800;55.942;37.314;2023-07-13T08:37:07;4.80;;;2.33;;
44137;SDS011;29800;55.942;37.314;2023-07-13T08:49:44;4.50;;;2.40;;
44137;SDS011;29800;55.942;37.314;2023-07-13T08:59:26;6.40;;;3.08;;
44137;SDS011;29800;55.942;37.314;2023-07-13T09:06:17;4.63;;;2.85;;
44137;SDS011;29800;55.942;37.314;2023-07-13T09:18:42;6.15;;;2.30;;
44137;SDS011;29800;55.942;37.314;2023-07-13T09:21:13;4.72;;;2.63;;
44137;SDS011;29800;55.942;37.314;2023-07-13T09:34:11;6.75;;;3.25;;
44137;SDS011;29800;55.942;37.314;2023-07-13T09:36:38;5.78;;;2.63;;
44137;SDS011;29800;55.942;37.314;2023-07-13T09:39:51;7.28;;;2.30;;
44137;SDS011;29800;55.942;37.314;2023-07-13T09:43:14;5.50;;;3.00;;
44137;SDS011;29800;55.942;37.314;2023-07-13T09:45:43;4.00;;;2.92;;
44137;SDS011;29800;55.942;37.314;2023-07-13T09:48:50;7.72;;;2.83;;
44137;SDS011;29800;55.942;37.314;2023-07-13T09:51:43;5.05;;;2.70;;
44137;SDS011;29800;55.942;37.314;2023-07-13T09:54:37;5.03;;;2.75;;
44137;SDS011;29800;55.942;37.314;2023-07-13T09:57:42;3.85;;;2.50;;
44137;SDS011;29800;55.942;37.314;2023-07-13T10:00:31;6.78;;;2.67;;
44137;SDS011;29800;55.942;37.314;2023-07-13T10:03:29;4.38;;;2.65;;
44137;SDS011;29800;55.942;37.314;2023-07-13T10:06:16;7.22;;;2.53;;
44137;SDS011;29800;55.942;37.314;2023-07-13T10:09:03;3.95;;;2.40;;
44137;SDS011;29800;55.942;37.314;2023-07-13T10:12:04;4.90;;;2.53;;
44137;SDS011;29800;55.942;37.314;2023-07-13T10:15:18;5.63;;;2.50;;
44137;SDS011;29800;55.942;37.314;2023-07-13T10:18:52;4.65;;;2.90;;
44137;SDS011;29800;55.942;37.314;2023-07-13T10:25:27;5.57;;;2.60;;
44137;SDS011;29800;55.942;37.314;2023-07-13T10:28:31;5.65;;;2.50;;
44137;SDS011;29800;55.942;37.314;2023-07-13T10:34:42;4.68;;;2.40;;
44137;SDS011;29800;55.942;37.314;2023-07-13T10:38:02;4.80;;;2.05;;
44137;SDS011;29800;55.942;37.314;2023-07-13T10:41:32;5.30;;;2.35;;
44137;SDS011;29800;55.942;37.314;2023-07-13T10:44:29;9.48;;;2.70;;
44137;SDS011;29800;55.942;37.314;2023-07-13T10:48:12;3.35;;;2.03;;
44137;SDS011;29800;55.942;37.314;2023-07-13T10:51:35;5.50;;;2.17;;
44137;SDS011;29800;55.942;37.314;2023-07-13T10:57:41;3.35;;;2.08;;
44137;SDS011;29800;55.942;37.314;2023-07-13T11:00:26;4.00;;;2.28;;
44137;SDS011;29800;55.942;37.314;2023-07-13T11:03:16;5.43;;;2.45;;
44137;SDS011;29800;55.942;37.314;2023-07-13T11:06:34;3.53;;;2.28;;
44137;SDS011;29800;55.942;37.314;2023-07-13T11:09:53;5.38;;;2.13;;
44137;SDS011;29800;55.942;37.314;2023-07-13T11:12:56;3.25;;;2.10;;
44137;SDS011;29800;55.942;37.314;2023-07-13T11:15:59;3.70;;;2.60;;
44137;SDS011;29800;55.942;37.314;2023-07-13T11:22:10;3.80;;;2.40;;
44137;SDS011;29800;55.942;37.314;2023-07-13T11:24:48;4.50;;;2.50;;
44137;SDS011;29800;55.942;37.314;2023-07-13T11:31:13;5.03;;;2.47;;
44137;SDS011;29800;55.942;37.314;2023-07-13T11:34:15;6.38;;;2.30;;
44137;SDS011;29800;55.942;37.314;2023-07-13T11:37:20;8.25;;;2.65;;
44137;SDS011;29800;55.942;37.314;2023-07-13T11:40:44;4.13;;;2.47;;
44137;SDS011;29800;55.942;37.314;2023-07-13T11:43:14;4.07;;;2.33;;
44137;SDS011;29800;55.942;37.314;2023-07-13T11:45:42;4.53;;;2.45;;
44137;SDS011;29800;55.942;37.314;2023-07-13T11:52:18;4.60;;;2.58;;
44137;SDS011;29800;55.942;37.314;2023-07-13T11:55:00;3.53;;;2.45;;
44137;SDS011;29800;55.942;37.314;2023-07-13T11:57:54;5.53;;;2.63;;
44137;SDS011;29800;55.942;37.314;2023-07-13T12:00:35;6.18;;;3.00;;
44137;SDS011;29800;55.942;37.314;2023-07-13T12:03:03;5.65;;;3.00;;
44137;SDS011;29800;55.942;37.314;2023-07-13T12:06:02;4.38;;;2.80;;
44137;SDS011;29800;55.942;37.314;2023-07-13T12:09:09;4.93;;;2.50;;
44137;SDS011;29800;55.942;37.314;2023-07-13T12:12:12;6.15;;;3.25;;
44137;SDS011;29800;55.942;37.314;2023-07-13T12:14:40;5.75;;;3.22;;
44137;SDS011;29800;55.942;37.314;2023-07-13T12:17:44;5.03;;;2.65;;
44137;SDS011;29800;55.942;37.314;2023-07-13T12:21:01;6.35;;;2.70;;
44137;SDS011;29800;55.942;37.314;2023-07-13T12:24:04;5.97;;;3.20;;
44137;SDS011;29800;55.942;37.314;2023-07-13T12:26:59;9.27;;;3.70;;
44137;SDS011;29800;55.942;37.314;2023-07-13T12:29:59;6.85;;;2.97;;
44137;SDS011;29800;55.942;37.314;2023-07-13T12:33:27;5.00;;;2.95;;
44137;SDS011;29800;55.942;37.314;2023-07-13T12:36:22;4.07;;;2.80;;
44137;SDS011;29800;55.942;37.314;2023-07-13T12:39:50;8.07;;;2.60;;
44137;SDS011;29800;55.942;37.314;2023-07-13T12:54:29;6.35;;;2.40;;
44137;SDS011;29800;55.942;37.314;2023-07-13T12:57:16;4.95;;;2.58;;
44137;SDS011;29800;55.942;37.314;2023-07-13T13:02:48;6.20;;;2.80;;
44137;SDS011;29800;55.942;37.314;2023-07-13T13:05:34;5.38;;;3.13;;
44137;SDS011;29800;55.942;37.314;2023-07-13T13:08:19;6.38;;;2.90;;
44137;SDS011;29800;55.942;37.314;2023-07-13T13:11:28;6.05;;;2.90;;
44137;SDS011;29800;55.942;37.314;2023-07-13T13:18:00;4.13;;;2.72;;
44137;SDS011;29800;55.942;37.314;2023-07-13T13:20:36;5.68;;;2.70;;
44137;SDS011;29800;55.942;37.314;2023-07-13T13:23:34;5.28;;;3.22;;
44137;SDS011;29800;55.942;37.314;2023-07-13T13:26:33;10.25;;;2.92;;
44137;SDS011;29800;55.942;37.314;2023-07-13T13:33:21;6.70;;;2.60;;
44137;SDS011;29800;55.942;37.314;2023-07-13T13:36:07;5.38;;;2.65;;
44137;SDS011;29800;55.942;37.314;2023-07-13T13:42:31;6.88;;;3.25;;
44137;SDS011;29800;55.942;37.314;2023-07-13T13:45:47;5.43;;;3.33;;
44137;SDS011;29800;55.942;37.314;2023-07-13T13:48:41;5.80;;;3.15;;
44137;SDS011;29800;55.942;37.314;2023-07-13T13:51:57;5.97;;;3.10;;
44137;SDS011;29800;55.942;37.314;2023-07-13T13:54:42;7.38;;;3.28;;
44137;SDS011;29800;55.942;37.314;2023-07-13T13:57:57;5.28;;;2.88;;
44137;SDS011;29800;55.942;37.314;2023-07-13T14:05:01;6.55;;;3.25;;
44137;SDS011;29800;55.942;37.314;2023-07-13T14:07:53;6.07;;;3.35;;
44137;SDS011;29800;55.942;37.314;2023-07-13T14:11:25;7.15;;;3.40;;
44137;SDS011;29800;55.942;37.314;2023-07-13T14:13:53;7.47;;;3.20;;
44137;SDS011;29800;55.942;37.314;2023-07-13T14:16:22;6.35;;;2.75;;
44137;SDS011;29800;55.942;37.314;2023-07-13T14:19:17;5.05;;;2.92;;
44137;SDS011;29800;55.942;37.314;2023-07-13T14:22:29;4.38;;;2.97;;
44137;SDS011;29800;55.942;37.314;2023-07-13T14:25:31;6.97;;;2.80;;
44137;SDS011;29800;55.942;37.314;2023-07-13T14:28:25;4.45;;;2.70;;
44137;SDS011;29800;55.942;37.314;2023-07-13T14:40:52;5.18;;;3.15;;
44137;SDS011;29800;55.942;37.314;2023-07-13T14:43:28;4.78;;;3.00;;
44137;SDS011;29800;55.942;37.314;2023-07-13T15:03:35;6.43;;;3.17;;
44137;SDS011;29800;55.942;37.314;2023-07-13T15:06:02;6.18;;;3.00;;
44137;SDS011;29800;55.942;37.314;2023-07-13T15:08:30;6.22;;;2.90;;
44137;SDS011;29800;55.942;37.314;2023-07-13T15:10:56;7.18;;;2.88;;
44137;SDS011;29800;55.942;37.314;2023-07-13T15:13:25;5.57;;;3.13;;
44137;SDS011;29800;55.942;37.314;2023-07-13T15:15:54;6.55;;;2.92;;
44137;SDS011;29800;55.942;37.314;2023-07-13T15:18:21;7.57;;;3.00;;
44137;SDS011;29800;55.942;37.314;2023-07-13T15:20:50;5.35;;;3.00;;
44137;SDS011;29800;55.942;37.314;2023-07-13T15:23:21;5.75;;;2.85;;
44137;SDS011;29800;55.942;37.314;2023-07-13T15:25:48;6.35;;;2.60;;
44137;SDS011;29800;55.942;37.314;2023-07-13T15:28:15;3.80;;;2.33;;
44137;SDS011;29800;55.942;37.314;2023-07-13T15:30:45;4.95;;;2.78;;
44137;SDS011;29800;55.942;37.314;2023-07-13T15:33:23;6.50;;;2.83;;
44137;SDS011;29800;55.942;37.314;2023-07-13T15:35:53;6.30;;;3.00;;
44137;SDS011;29800;55.942;37.314;2023-07-13T15:38:20;4.30;;;2.40;;
44137;SDS011;29800;55.942;37.314;2023-07-13T15:40:50;8.05;;;3.00;;
44137;SDS011;29800;55.942;37.314;2023-07-13T15:43:17;6.13;;;2.80;;
44137;SDS011;29800;55.942;37.314;2023-07-13T15:45:45;7.72;;;2.90;;
44137;SDS011;29800;55.942;37.314;2023-07-13T15:48:15;4.78;;;2.63;;
44137;SDS011;29800;55.942;37.314;2023-07-13T15:50:44;5.82;;;2.80;;
44137;SDS011;29800;55.942;37.314;2023-07-13T15:53:13;4.15;;;2.53;;
44137;SDS011;29800;55.942;37.314;2023-07-13T15:55:45;6.18;;;2.60;;
44137;SDS011;29800;55.942;37.314;2023-07-13T15:58:12;6.18;;;2.75;;
44137;SDS011;29800;55.942;37.314;2023-07-13T16:00:41;6.53;;;3.42;;
44137;SDS011;29800;55.942;37.314;2023-07-13T16:03:08;8.23;;;3.33;;
44137;SDS011;29800;55.942;37.314;2023-07-13T16:05:34;6.95;;;3.28;;
44137;SDS011;29800;55.942;37.314;2023-07-13T16:08:01;5.30;;;2.58;;
44137;SDS011;29800;55.942;37.314;2023-07-13T16:10:34;5.25;;;2.67;;
44137;SDS011;29800;55.942;37.314;2023-07-13T16:13:24;4.97;;;2.55;;
44137;SDS011;29800;55.942;37.314;2023-07-13T16:15:52;8.95;;;3.03;;
44137;SDS011;29800;55.942;37.314;2023-07-13T16:18:22;9.63;;;3.13;;
44137;SDS011;29800;55.942;37.314;2023-07-13T16:20:48;8.73;;;3.80;;
44137;SDS011;29800;55.942;37.314;2023-07-13T16:23:15;7.43;;;3.45;;
44137;SDS011;29800;55.942;37.314;2023-07-13T16:25:43;6.85;;;3.45;;
44137;SDS011;29800;55.942;37.314;2023-07-13T16:28:10;8.32;;;3.67;;
44137;SDS011;29800;55.942;37.314;2023-07-13T16:30:37;6.20;;;3.35;;
44137;SDS011;29800;55.942;37.314;2023-07-13T16:33:04;7.88;;;4.00;;
44137;SDS011;29800;55.942;37.314;2023-07-13T16:35:34;8.65;;;4.00;;
44137;SDS011;29800;55.942;37.314;2023-07-13T16:38:03;7.60;;;3.40;;
44137;SDS011;29800;55.942;37.314;2023-07-13T16:40:38;11.07;;;3.55;;
44137;SDS011;29800;55.942;37.314;2023-07-13T16:43:05;11.20;;;3.00;;
44137;SDS011;29800;55.942;37.314;2023-07-13T16:45:32;5.78;;;3.17;;
44137;SDS011;29800;55.942;37.314;2023-07-13T16:48:08;11.23;;;3.28;;
44137;SDS011;29800;55.942;37.314;2023-07-13T16:50:41;5.63;;;2.88;;
44137;SDS011;29800;55.942;37.314;2023-07-13T16:53:21;5.88;;;2.92;;
44137;SDS011;29800;55.942;37.314;2023-07-13T16:55:49;9.55;;;3.20;;
44137;SDS011;29800;55.942;37.314;2023-07-13T16:58:16;6.00;;;2.60;;
44137;SDS011;29800;55.942;37.314;2023-07-13T17:00:43;6.30;;;2.70;;
44137;SDS011;29800;55.942;37.314;2023-07-13T17:03:10;9.20;;;3.13;;
44137;SDS011;29800;55.942;37.314;2023-07-13T17:05:38;9.52;;;3.20;;
44137;SDS011;29800;55.942;37.314;2023-07-13T17:08:15;9.18;;;3.92;;
44137;SDS011;29800;55.942;37.314;2023-07-13T17:10:50;10.15;;;3.70;;
44137;SDS011;29800;55.942;37.314;2023-07-13T17:13:20;7.80;;;3.63;;
44137;SDS011;29800;55.942;37.314;2023-07-13T17:15:50;6.22;;;3.53;;
44137;SDS011;29800;55.942;37.314;2023-07-13T17:18:28;6.68;;;3.60;;
44137;SDS011;29800;55.942;37.314;2023-07-13T17:21:05;5.07;;;3.30;;
44137;SDS011;29800;55.942;37.314;2023-07-13T17:23:33;6.00;;;3.38;;
44137;SDS011;29800;55.942;37.314;2023-07-13T17:26:04;5.93;;;3.38;;
44137;SDS011;29800;55.942;37.314;2023-07-13T17:28:31;4.75;;;3.15;;
44137;SDS011;29800;55.942;37.314;2023-07-13T17:30:58;6.72;;;3.50;;
44137;SDS011;29800;55.942;37.314;2023-07-13T17:35:57;5.13;;;3.20;;
44137;SDS011;29800;55.942;37.314;2023-07-13T17:38:29;6.85;;;3.25;;
44137;SDS011;29800;55.942;37.314;2023-07-13T17:41:06;5.25;;;3.30;;
44137;SDS011;29800;55.942;37.314;2023-07-13T17:43:37;8.20;;;3.78;;
44137;SDS011;29800;55.942;37.314;2023-07-13T17:46:14;7.43;;;3.70;;
44137;SDS011;29800;55.942;37.314;2023-07-13T17:48:43;6.70;;;3.70;;
44137;SDS011;29800;55.942;37.314;2023-07-13T17:51:12;6.05;;;3.63;;
44137;SDS011;29800;55.942;37.314;2023-07-13T17:53:41;6.00;;;3.50;;
44137;SDS011;29800;55.942;37.314;2023-07-13T17:56:09;7.28;;;3.42;;
44137;SDS011;29800;55.942;37.314;2023-07-13T17:58:36;5.07;;;3.17;;
44137;SDS011;29800;55.942;37.314;2023-07-13T18:01:03;8.18;;;4.05;;
44137;SDS011;29800;55.942;37.314;2023-07-13T18:03:33;7.00;;;3.65;;
44137;SDS011;29800;55.942;37.314;2023-07-13T18:06:14;7.88;;;4.00;;
44137;SDS011;29800;55.942;37.314;2023-07-13T18:08:58;5.53;;;3.80;;
44137;SDS011;29800;55.942;37.314;2023-07-13T18:11:26;6.90;;;3.70;;
44137;SDS011;29800;55.942;37.314;2023-07-13T18:13:54;11.10;;;4.10;;
44137;SDS011;29800;55.942;37.314;2023-07-13T18:16:22;5.78;;;3.58;;
44137;SDS011;29800;55.942;37.314;2023-07-13T18:18:55;6.65;;;3.78;;
44137;SDS011;29800;55.942;37.314;2023-07-13T18:21:23;6.05;;;4.07;;
44137;SDS011;29800;55.942;37.314;2023-07-13T18:23:51;5.78;;;3.60;;
44137;SDS011;29800;55.942;37.314;2023-07-13T18:26:20;7.20;;;3.80;;
44137;SDS011;29800;55.942;37.314;2023-07-13T18:28:49;5.55;;;3.60;;
44137;SDS011;29800;55.942;37.314;2023-07-13T18:31:20;5.13;;;3.42;;
44137;SDS011;29800;55.942;37.314;2023-07-13T18:33:49;6.85;;;4.07;;
44137;SDS011;29800;55.942;37.314;2023-07-13T18:36:19;5.47;;;3.60;;
44137;SDS011;29800;55.942;37.314;2023-07-13T18:38:46;5.82;;;3.40;;
44137;SDS011;29800;55.942;37.314;2023-07-13T18:41:14;5.80;;;3.28;;
44137;SDS011;29800;55.942;37.314;2023-07-13T18:43:44;6.40;;;3.53;;
44137;SDS011;29800;55.942;37.314;2023-07-13T18:46:16;8.40;;;3.78;;
44137;SDS011;29800;55.942;37.314;2023-07-13T18:48:49;5.22;;;2.95;;
44137;SDS011;29800;55.942;37.314;2023-07-13T18:51:16;5.43;;;3.13;;
44137;SDS011;29800;55.942;37.314;2023-07-13T18:53:43;6.20;;;3.17;;
44137;SDS011;29800;55.942;37.314;2023-07-13T18:56:10;5.53;;;3.38;;
44137;SDS011;29800;55.942;37.314;2023-07-13T18:58:38;5.38;;;3.08;;
44137;SDS011;29800;55.942;37.314;2023-07-13T19:01:17;8.88;;;3.35;;
44137;SDS011;29800;55.942;37.314;2023-07-13T19:03:50;4.75;;;3.28;;
44137;SDS011;29800;55.942;37.314;2023-07-13T19:06:18;5.18;;;3.60;;
44137;SDS011;29800;55.942;37.314;2023-07-13T19:08:45;5.95;;;3.20;;
44137;SDS011;29800;55.942;37.314;2023-07-13T19:11:12;6.07;;;3.30;;
44137;SDS011;29800;55.942;37.314;2023-07-13T19:13:40;6.30;;;3.17;;
44137;SDS011;29800;55.942;37.314;2023-07-13T19:16:10;5.53;;;3.30;;
44137;SDS011;29800;55.942;37.314;2023-07-13T19:18:38;6.10;;;3.70;;
44137;SDS011;29800;55.942;37.314;2023-07-13T19:21:09;7.78;;;3.40;;
44137;SDS011;29800;55.942;37.314;2023-07-13T19:24:12;7.75;;;3.78;;
44137;SDS011;29800;55.942;37.314;2023-07-13T19:26:42;6.05;;;3.67;;
44137;SDS011;29800;55.942;37.314;2023-07-13T19:29:12;6.15;;;3.58;;
44137;SDS011;29800;55.942;37.314;2023-07-13T19:31:40;6.75;;;3.35;;
44137;SDS011;29800;55.942;37.314;2023-07-13T19:36:34;5.22;;;3.55;;
44137;SDS011;29800;55.942;37.314;2023-07-13T19:39:01;6.90;;;3.47;;
44137;SDS011;29800;55.942;37.314;2023-07-13T19:41:28;5.50;;;3.20;;
44137;SDS011;29800;55.942;37.314;2023-07-13T19:43:58;9.57;;;3.50;;
44137;SDS011;29800;55.942;37.314;2023-07-13T19:46:27;5.43;;;3.42;;
44137;SDS011;29800;55.942;37.314;2023-07-13T19:48:54;7.72;;;3.03;;
44137;SDS011;29800;55.942;37.314;2023-07-13T19:51:21;7.43;;;3.28;;
44137;SDS011;29800;55.942;37.314;2023-07-13T19:53:51;11.80;;;3.70;;
44137;SDS011;29800;55.942;37.314;2023-07-13T19:56:21;6.05;;;3.10;;
44137;SDS011;29800;55.942;37.314;2023-07-13T19:58:49;4.00;;;3.00;;
44137;SDS011;29800;55.942;37.314;2023-07-13T20:01:15;4.18;;;2.60;;
44137;SDS011;29800;55.942;37.314;2023-07-13T20:03:43;7.38;;;2.50;;
44137;SDS011;29800;55.942;37.314;2023-07-13T20:06:18;4.78;;;2.80;;
44137;SDS011;29800;55.942;37.314;2023-07-13T20:08:49;6.05;;;3.00;;
44137;SDS011;29800;55.942;37.314;2023-07-13T20:11:16;5.13;;;2.70;;
44137;SDS011;29800;55.942;37.314;2023-07-13T20:13:43;6.65;;;2.92;;
44137;SDS011;29800;55.942;37.314;2023-07-13T20:16:13;5.82;;;2.53;;
44137;SDS011;29800;55.942;37.314;2023-07-13T20:18:43;5.30;;;2.75;;
44137;SDS011;29800;55.942;37.314;2023-07-13T20:21:14;8.02;;;2.63;;
44137;SDS011;29800;55.942;37.314;2023-07-13T20:23:41;5.53;;;2.47;;
44137;SDS011;29800;55.942;37.314;2023-07-13T20:26:09;3.40;;;2.22;;
44137;SDS011;29800;55.942;37.314;2023-07-13T20:28:36;7.35;;;2.47;;
44137;SDS011;29800;55.942;37.314;2023-07-13T20:31:04;4.22;;;2.67;;
44137;SDS011;29800;55.942;37.314;2023-07-13T20:33:38;5.00;;;2.67;;
44137;SDS011;29800;55.942;37.314;2023-07-13T20:36:05;3.72;;;2.60;;
44137;SDS011;29800;55.942;37.314;2023-07-13T20:38:33;3.30;;;2.30;;
44137;SDS011;29800;55.942;37.314;2023-07-13T20:40:59;4.25;;;2.42;;